createdAt,value
2023-03-01T00:00:00.167Z,0.18
2023-03-01T00:01:00.197Z,0.18
2023-03-01T00:02:00.300Z,0.18
2023-03-01T00:03:00.280Z,0.18
2023-03-01T00:04:00.318Z,0.18
2023-03-01T00:05:00.358Z,0.18
2023-03-01T00:06:00.387Z,0.18
2023-03-01T00:07:00.437Z,0.17
2023-03-01T00:08:00.478Z,0.18
2023-03-01T00:09:00.489Z,0.14
2023-03-01T00:10:00.536Z,0.15
2023-03-01T00:11:00.617Z,0.16
2023-03-01T00:12:00.595Z,0.17
2023-03-01T00:13:00.631Z,0.16
2023-03-01T00:14:00.651Z,0.17
2023-03-01T00:15:00.704Z,0.16
2023-03-01T00:16:00.725Z,0.15
2023-03-01T00:17:00.822Z,0.16
2023-03-01T00:18:00.799Z,0.15
2023-03-01T00:19:00.865Z,0.11
2023-03-01T00:20:00.878Z,0.09
2023-03-01T00:21:00.913Z,0.09
2023-03-01T00:22:00.934Z,0.08
2023-03-01T00:23:00.967Z,0.07
2023-03-01T00:24:01.005Z,0.05
2023-03-01T00:25:01.040Z,0.07
2023-03-01T00:26:01.068Z,0.06
2023-03-01T00:27:01.135Z,0.06
2023-03-01T00:28:01.158Z,0.08
2023-03-01T00:29:01.192Z,0.05
2023-03-01T00:30:01.214Z,0.04
2023-03-01T00:31:01.360Z,0.04
2023-03-01T00:32:01.343Z,0.05
2023-03-01T00:33:01.322Z,0.03
2023-03-01T00:34:01.352Z,0.03
2023-03-01T00:35:01.373Z,0.03
2023-03-01T00:36:01.420Z,0.04
2023-03-01T00:37:01.448Z,0.04
2023-03-01T00:38:01.501Z,0.05
2023-03-01T00:39:01.539Z,0.05
2023-03-01T00:40:01.565Z,0.05
2023-03-01T00:41:01.604Z,0.05
2023-03-01T00:42:01.649Z,0.05
2023-03-01T00:43:01.711Z,0.05
2023-03-01T00:44:01.730Z,0.05
2023-03-01T00:45:01.748Z,0.03
2023-03-01T00:46:01.897Z,0.02
2023-03-01T00:47:01.817Z,0.02
2023-03-01T00:48:01.859Z,0.02
2023-03-01T00:49:01.884Z,0.02
2023-03-01T00:50:01.933Z,0.02
2023-03-01T00:51:01.962Z,0.02
2023-03-01T00:52:01.988Z,0.01
2023-03-01T00:53:02.024Z,0.01
2023-03-01T00:54:02.076Z,0.01
2023-03-01T00:55:02.113Z,0.02
2023-03-01T00:56:02.139Z,0.02
2023-03-01T00:57:02.175Z,0.02
2023-03-01T00:58:42.238Z,0.01
2023-03-01T00:59:43.273Z,0.01
2023-03-01T01:00:43.322Z,0.01
2023-03-01T01:01:43.393Z,-0.04
2023-03-01T01:02:43.469Z,-0.05
2023-03-01T01:03:43.425Z,-0.06
2023-03-01T01:04:43.459Z,-0.1
2023-03-01T01:05:43.509Z,-0.11
2023-03-01T01:06:43.669Z,-0.11
2023-03-01T01:07:43.567Z,-0.1
2023-03-01T01:08:43.598Z,-0.12
2023-03-01T01:09:43.622Z,-0.1
2023-03-01T01:10:43.658Z,-0.08
2023-03-01T01:11:43.701Z,-0.06
2023-03-01T01:12:43.729Z,-0.06
2023-03-01T01:13:43.767Z,-0.06
2023-03-01T01:14:43.801Z,-0.06
2023-03-01T01:15:43.860Z,-0.1
2023-03-01T01:16:43.864Z,-0.1
2023-03-01T01:17:43.884Z,-0.11
2023-03-01T01:18:43.918Z,-0.12
2023-03-01T01:19:43.953Z,-0.12
2023-03-01T01:20:43.982Z,-0.12
2023-03-01T01:21:44.129Z,-0.12
2023-03-01T01:22:44.056Z,-0.11
2023-03-01T01:23:44.091Z,-0.11
2023-03-01T01:24:44.134Z,-0.11
2023-03-01T01:25:44.154Z,-0.1
2023-03-01T01:26:44.187Z,-0.13
2023-03-01T01:27:44.218Z,-0.13
2023-03-01T01:28:44.268Z,-0.13
2023-03-01T01:29:44.290Z,-0.15
2023-03-01T01:30:44.325Z,-0.14
2023-03-01T01:31:44.368Z,-0.14
2023-03-01T01:32:44.398Z,-0.14
2023-03-01T01:33:44.443Z,-0.14
2023-03-01T01:34:44.477Z,-0.13
2023-03-01T01:35:44.514Z,-0.14
2023-03-01T01:36:44.551Z,-0.14
2023-03-01T01:37:44.584Z,-0.18
2023-03-01T01:38:44.624Z,-0.18
2023-03-01T01:39:44.659Z,-0.18
2023-03-01T01:40:44.694Z,-0.19
2023-03-01T01:41:44.742Z,-0.19
2023-03-01T01:42:44.792Z,-0.22
2023-03-01T01:43:44.797Z,-0.21
2023-03-01T01:44:44.824Z,-0.2
2023-03-01T01:45:44.857Z,-0.2
2023-03-01T01:46:45.017Z,-0.2
2023-03-01T01:47:44.929Z,-0.2
2023-03-01T01:48:44.961Z,-0.22
2023-03-01T01:49:44.997Z,-0.22
2023-03-01T01:50:45.032Z,-0.24
2023-03-01T01:51:45.067Z,-0.23
2023-03-01T01:52:45.093Z,-0.2
2023-03-01T01:53:45.125Z,-0.21
2023-03-01T01:54:45.161Z,-0.21
2023-03-01T01:55:45.186Z,-0.23
2023-03-01T01:56:45.228Z,-0.23
2023-03-01T01:57:45.264Z,-0.23
2023-03-01T01:58:45.295Z,-0.23
2023-03-01T01:59:45.328Z,-0.23
2023-03-01T02:00:45.362Z,-0.26
2023-03-01T02:01:45.399Z,-0.26
2023-03-01T02:02:45.514Z,-0.25
2023-03-01T02:03:45.607Z,-0.25
2023-03-01T02:04:45.509Z,-0.26
2023-03-01T02:05:45.540Z,-0.26
2023-03-01T02:06:45.582Z,-0.24
2023-03-01T02:07:45.607Z,-0.28
2023-03-01T02:08:45.645Z,-0.3
2023-03-01T02:09:45.689Z,-0.34
2023-03-01T02:10:45.722Z,-0.34
2023-03-01T02:11:45.766Z,-0.34
2023-03-01T02:12:45.795Z,-0.34
2023-03-01T02:13:45.833Z,-0.34
2023-03-01T02:14:45.860Z,-0.35
2023-03-01T02:15:45.948Z,-0.4
2023-03-01T02:16:45.929Z,-0.39
2023-03-01T02:17:45.968Z,-0.44
2023-03-01T02:18:45.996Z,-0.46
2023-03-01T02:19:46.035Z,-0.49
2023-03-01T02:20:46.088Z,-0.52
2023-03-01T02:21:46.102Z,-0.5
2023-03-01T02:22:46.140Z,-0.53
2023-03-01T02:23:46.175Z,-0.55
2023-03-01T02:24:46.206Z,-0.54
2023-03-01T02:25:46.243Z,-0.54
2023-03-01T02:26:46.284Z,-0.55
2023-03-01T02:27:46.308Z,-0.54
2023-03-01T02:28:46.346Z,-0.52
2023-03-01T02:29:46.383Z,-0.51
2023-03-01T02:30:46.416Z,-0.53
2023-03-01T02:31:46.446Z,-0.52
2023-03-01T02:32:46.480Z,-0.5
2023-03-01T02:33:46.514Z,-0.52
2023-03-01T02:34:46.548Z,-0.52
2023-03-01T02:35:46.652Z,-0.48
2023-03-01T02:36:46.605Z,-0.47
2023-03-01T02:37:46.639Z,-0.47
2023-03-01T02:38:46.672Z,-0.47
2023-03-01T02:39:46.699Z,-0.46
2023-03-01T02:40:46.727Z,-0.48
2023-03-01T02:41:46.776Z,-0.47
2023-03-01T02:42:46.804Z,-0.46
2023-03-01T02:43:46.838Z,-0.45
2023-03-01T02:44:46.878Z,-0.46
2023-03-01T02:45:46.896Z,-0.46
2023-03-01T02:46:46.993Z,-0.46
2023-03-01T02:47:46.970Z,-0.45
2023-03-01T02:48:47.004Z,-0.46
2023-03-01T02:49:47.023Z,-0.45
2023-03-01T02:50:47.066Z,-0.44
2023-03-01T02:51:47.102Z,-0.42
2023-03-01T02:52:47.132Z,-0.43
2023-03-01T02:53:47.165Z,-0.43
2023-03-01T02:54:47.197Z,-0.44
2023-03-01T02:55:47.241Z,-0.43
2023-03-01T02:56:47.265Z,-0.44
2023-03-01T02:57:47.305Z,-0.43
2023-03-01T02:58:47.327Z,-0.43
2023-03-01T02:59:47.352Z,-0.44
2023-03-01T03:00:47.433Z,-0.42
2023-03-01T03:01:47.505Z,-0.45
2023-03-01T03:02:47.444Z,-0.46
2023-03-01T03:03:47.535Z,-0.47
2023-03-01T03:04:47.515Z,-0.45
2023-03-01T03:05:47.553Z,-0.43
2023-03-01T03:06:47.577Z,-0.45
2023-03-01T03:07:47.611Z,-0.45
2023-03-01T03:08:47.644Z,-0.45
2023-03-01T03:09:47.706Z,-0.45
2023-03-01T03:10:47.730Z,-0.5
2023-03-01T03:11:47.781Z,-0.5
2023-03-01T03:12:47.787Z,-0.49
2023-03-01T03:13:47.829Z,-0.49
2023-03-01T03:14:47.864Z,-0.47
2023-03-01T03:15:47.889Z,-0.47
2023-03-01T03:16:47.931Z,-0.49
2023-03-01T03:17:47.976Z,-0.49
2023-03-01T03:18:48.019Z,-0.51
2023-03-01T03:19:48.044Z,-0.5
2023-03-01T03:20:48.100Z,-0.5
2023-03-01T03:21:48.107Z,-0.5
2023-03-01T03:22:48.160Z,-0.54
2023-03-01T03:23:48.175Z,-0.54
2023-03-01T03:24:48.233Z,-0.53
2023-03-01T03:25:48.245Z,-0.53
2023-03-01T03:26:48.290Z,-0.5
2023-03-01T03:27:48.332Z,-0.55
2023-03-01T03:28:48.355Z,-0.55
2023-03-01T03:29:48.399Z,-0.58
2023-03-01T03:30:48.413Z,-0.59
2023-03-01T03:31:48.653Z,-0.61
2023-03-01T03:32:48.492Z,-0.59
2023-03-01T03:33:48.522Z,-0.6
2023-03-01T03:34:48.559Z,-0.6
2023-03-01T03:35:48.628Z,-0.63
2023-03-01T03:36:48.625Z,-0.63
2023-03-01T03:37:48.662Z,-0.63
2023-03-01T03:38:48.695Z,-0.63
2023-03-01T03:39:48.721Z,-0.65
2023-03-01T03:40:48.765Z,-0.65
2023-03-01T03:41:48.807Z,-0.63
2023-03-01T03:42:48.840Z,-0.61
2023-03-01T03:43:48.872Z,-0.6
2023-03-01T03:44:48.906Z,-0.6
2023-03-01T03:45:49.032Z,-0.6
2023-03-01T03:46:48.993Z,-0.6
2023-03-01T03:47:49.020Z,-0.62
2023-03-01T03:48:49.059Z,-0.63
2023-03-01T03:49:49.096Z,-0.63
2023-03-01T03:50:49.129Z,-0.66
2023-03-01T03:51:49.141Z,-0.66
2023-03-01T03:52:49.178Z,-0.67
2023-03-01T03:53:49.216Z,-0.63
2023-03-01T03:54:49.242Z,-0.63
2023-03-01T03:55:49.275Z,-0.63
2023-03-01T03:56:49.323Z,-0.65
2023-03-01T03:57:49.358Z,-0.63
2023-03-01T03:58:49.392Z,-0.63
2023-03-01T03:59:49.419Z,-0.63
2023-03-01T04:00:49.473Z,-0.68
2023-03-01T04:01:49.554Z,-0.68
2023-03-01T04:02:49.623Z,-0.68
2023-03-01T04:03:49.573Z,-0.67
2023-03-01T04:04:49.604Z,-0.66
2023-03-01T04:05:49.634Z,-0.7
2023-03-01T04:06:49.681Z,-0.71
2023-03-01T04:07:49.705Z,-0.69
2023-03-01T04:08:49.743Z,-0.68
2023-03-01T04:09:49.778Z,-0.7
2023-03-01T04:10:49.808Z,-0.67
2023-03-01T04:11:49.844Z,-0.67
2023-03-01T04:12:49.879Z,-0.67
2023-03-01T04:13:49.913Z,-0.67
2023-03-01T04:14:49.958Z,-0.67
2023-03-01T04:15:49.985Z,-0.7
2023-03-01T04:16:50.165Z,-0.7
2023-03-01T04:17:50.062Z,-0.7
2023-03-01T04:18:50.096Z,-0.7
2023-03-01T04:19:50.124Z,-0.71
2023-03-01T04:20:50.168Z,-0.71
2023-03-01T04:21:50.209Z,-0.69
2023-03-01T04:22:50.236Z,-0.7
2023-03-01T04:23:50.274Z,-0.72
2023-03-01T04:24:50.325Z,-0.7
2023-03-01T04:25:50.394Z,-0.7
2023-03-01T04:26:50.376Z,-0.69
2023-03-01T04:27:50.408Z,-0.68
2023-03-01T04:28:50.441Z,-0.72
2023-03-01T04:29:50.478Z,-0.71
2023-03-01T04:30:50.516Z,-0.73
2023-03-01T04:31:50.649Z,-0.74
2023-03-01T04:32:50.580Z,-0.73
2023-03-01T04:33:50.621Z,-0.75
2023-03-01T04:34:50.657Z,-0.78
2023-03-01T04:35:50.810Z,-0.76
2023-03-01T04:36:50.871Z,-0.79
2023-03-01T04:37:50.760Z,-0.8
2023-03-01T04:38:50.800Z,-0.81
2023-03-01T04:39:50.838Z,-0.81
2023-03-01T04:40:50.867Z,-0.83
2023-03-01T04:41:50.906Z,-0.79
2023-03-01T04:42:50.935Z,-0.77
2023-03-01T04:43:50.965Z,-0.77
2023-03-01T04:44:51.005Z,-0.75
2023-03-01T04:45:51.115Z,-0.77
2023-03-01T04:46:51.081Z,-0.81
2023-03-01T04:47:51.115Z,-0.82
2023-03-01T04:48:51.159Z,-0.82
2023-03-01T04:49:51.187Z,-0.79
2023-03-01T04:50:51.217Z,-0.79
2023-03-01T04:51:51.264Z,-0.79
2023-03-01T04:52:51.285Z,-0.76
2023-03-01T04:53:51.327Z,-0.76
2023-03-01T04:54:51.356Z,-0.78
2023-03-01T04:55:51.391Z,-0.76
2023-03-01T04:56:51.419Z,-0.77
2023-03-01T04:57:51.457Z,-0.8
2023-03-01T04:58:51.480Z,-0.8
2023-03-01T04:59:51.516Z,-0.79
2023-03-01T05:00:51.541Z,-0.8
2023-03-01T05:01:51.575Z,-0.8
2023-03-01T05:02:51.643Z,-0.8
2023-03-01T05:03:51.653Z,-0.79
2023-03-01T05:04:51.676Z,-0.8
2023-03-01T05:05:51.702Z,-0.81
2023-03-01T05:06:51.737Z,-0.85
2023-03-01T05:07:51.769Z,-0.85
2023-03-01T05:08:51.794Z,-0.87
2023-03-01T05:09:54.038Z,-0.84
2023-03-01T05:10:51.865Z,-0.85
2023-03-01T05:11:51.902Z,-0.84
2023-03-01T05:12:51.934Z,-0.84
2023-03-01T05:13:51.963Z,-0.83
2023-03-01T05:14:52.009Z,-0.84
2023-03-01T05:15:52.058Z,-0.83
2023-03-01T05:16:52.072Z,-0.81
2023-03-01T05:17:52.107Z,-0.81
2023-03-01T05:18:52.142Z,-0.81
2023-03-01T05:19:52.174Z,-0.81
2023-03-01T05:20:52.215Z,-0.81
2023-03-01T05:21:52.252Z,-0.8
2023-03-01T05:22:52.279Z,-0.8
2023-03-01T05:23:52.318Z,-0.86
2023-03-01T05:24:52.374Z,-0.84
2023-03-01T05:25:52.399Z,-0.82
2023-03-01T05:26:52.437Z,-0.81
2023-03-01T05:27:52.478Z,-0.87
2023-03-01T05:28:52.498Z,-0.84
2023-03-01T05:29:52.532Z,-0.83
2023-03-01T05:30:52.694Z,-0.85
2023-03-01T05:31:52.644Z,-0.85
2023-03-01T05:32:52.628Z,-0.85
2023-03-01T05:33:52.665Z,-0.86
2023-03-01T05:34:52.694Z,-0.86
2023-03-01T05:35:52.884Z,-0.87
2023-03-01T05:36:52.770Z,-0.88
2023-03-01T05:37:52.805Z,-0.87
2023-03-01T05:38:52.859Z,-0.89
2023-03-01T05:39:52.876Z,-0.9
2023-03-01T05:40:52.903Z,-0.92
2023-03-01T05:41:52.943Z,-0.92
2023-03-01T05:42:52.970Z,-0.91
2023-03-01T05:43:52.996Z,-0.92
2023-03-01T05:44:53.031Z,-0.91
2023-03-01T05:45:53.094Z,-0.93
2023-03-01T05:46:53.138Z,-0.9
2023-03-01T05:47:53.134Z,-0.92
2023-03-01T05:48:53.163Z,-0.92
2023-03-01T05:49:53.199Z,-0.92
2023-03-01T05:50:53.238Z,-0.92
2023-03-01T05:51:53.279Z,-0.89
2023-03-01T05:52:53.301Z,-0.93
2023-03-01T05:53:53.332Z,-0.93
2023-03-01T05:54:53.365Z,-0.93
2023-03-01T05:55:53.400Z,-0.94
2023-03-01T05:56:53.432Z,-0.93
2023-03-01T05:57:53.460Z,-0.93
2023-03-01T05:58:53.521Z,-0.93
2023-03-01T05:59:53.538Z,-0.95
2023-03-01T06:00:55.395Z,-0.93
2023-03-01T06:01:53.598Z,-0.95
2023-03-01T06:02:53.635Z,-0.92
2023-03-01T06:03:53.666Z,-0.93
2023-03-01T06:04:53.835Z,-0.93
2023-03-01T06:05:53.735Z,-0.94
2023-03-01T06:06:53.782Z,-0.94
2023-03-01T06:07:53.810Z,-0.91
2023-03-01T06:08:53.845Z,-0.9
2023-03-01T06:09:53.874Z,-0.89
2023-03-01T06:10:53.911Z,-0.93
2023-03-01T06:11:53.941Z,-0.93
2023-03-01T06:12:53.974Z,-0.93
2023-03-01T06:13:54.009Z,-0.91
2023-03-01T06:14:54.043Z,-0.96
2023-03-01T06:15:54.101Z,-0.96
2023-03-01T06:16:54.108Z,-0.97
2023-03-01T06:17:54.146Z,-0.97
2023-03-01T06:18:54.178Z,-0.97
2023-03-01T06:19:54.213Z,-0.92
2023-03-01T06:20:54.236Z,-0.9
2023-03-01T06:21:54.285Z,-0.89
2023-03-01T06:22:54.308Z,-0.89
2023-03-01T06:23:54.344Z,-0.87
2023-03-01T06:24:54.366Z,-0.86
2023-03-01T06:25:54.409Z,-0.84
2023-03-01T06:26:54.441Z,-0.84
2023-03-01T06:27:54.477Z,-0.83
2023-03-01T06:28:54.502Z,-0.83
2023-03-01T06:29:54.536Z,-0.81
2023-03-01T06:30:54.575Z,-0.82
2023-03-01T06:31:54.626Z,-0.82
2023-03-01T06:32:54.641Z,-0.83
2023-03-01T06:33:54.669Z,-0.83
2023-03-01T06:34:54.705Z,-0.81
2023-03-01T06:35:54.736Z,-0.8
2023-03-01T06:36:54.772Z,-0.8
2023-03-01T06:37:54.802Z,-0.78
2023-03-01T06:38:54.839Z,-0.75
2023-03-01T06:39:54.878Z,-0.75
2023-03-01T06:40:54.913Z,-0.75
2023-03-01T06:41:55.140Z,-0.68
2023-03-01T06:42:54.984Z,-0.7
2023-03-01T06:43:55.021Z,-0.68
2023-03-01T06:44:55.064Z,-0.71
2023-03-01T06:45:55.097Z,-0.7
2023-03-01T06:46:55.169Z,-0.69
2023-03-01T06:47:55.174Z,-0.65
2023-03-01T06:48:55.198Z,-0.66
2023-03-01T06:49:55.241Z,-0.66
2023-03-01T06:50:55.319Z,-0.63
2023-03-01T06:51:55.330Z,-0.63
2023-03-01T06:52:55.328Z,-0.6
2023-03-01T06:53:55.368Z,-0.59
2023-03-01T06:54:55.401Z,-0.54
2023-03-01T06:55:55.435Z,-0.55
2023-03-01T06:56:55.475Z,-0.52
2023-03-01T06:57:55.500Z,-0.52
2023-03-01T06:58:55.543Z,-0.5
2023-03-01T06:59:55.574Z,-0.48
2023-03-01T07:00:55.608Z,-0.45
2023-03-01T07:01:55.681Z,-0.44
2023-03-01T07:02:55.714Z,-0.39
2023-03-01T07:03:55.709Z,-0.37
2023-03-01T07:04:55.768Z,-0.35
2023-03-01T07:05:55.783Z,-0.26
2023-03-01T07:06:55.821Z,-0.24
2023-03-01T07:07:55.855Z,-0.24
2023-03-01T07:08:55.880Z,-0.27
2023-03-01T07:09:55.917Z,-0.16
2023-03-01T07:10:55.954Z,-0.16
2023-03-01T07:11:55.996Z,-0.18
2023-03-01T07:12:56.029Z,-0.12
2023-03-01T07:13:56.065Z,-0.12
2023-03-01T07:14:56.135Z,-0.08
2023-03-01T07:15:56.207Z,-0.02
2023-03-01T07:16:56.174Z,0.06
2023-03-01T07:17:56.206Z,0.08
2023-03-01T07:18:56.240Z,0.19
2023-03-01T07:19:56.271Z,0.22
2023-03-01T07:20:56.301Z,0.29
2023-03-01T07:21:56.328Z,0.33
2023-03-01T07:22:56.382Z,0.34
2023-03-01T07:23:56.409Z,0.4
2023-03-01T07:24:56.444Z,0.44
2023-03-01T07:25:56.484Z,0.49
2023-03-01T07:26:56.516Z,0.55
2023-03-01T07:27:56.563Z,0.62
2023-03-01T07:28:56.570Z,0.63
2023-03-01T07:29:56.605Z,0.63
2023-03-01T07:30:56.628Z,0.66
2023-03-01T07:31:56.819Z,0.68
2023-03-01T07:32:56.867Z,0.76
2023-03-01T07:33:56.764Z,0.79
2023-03-01T07:34:56.784Z,0.81
2023-03-01T07:35:56.862Z,0.83
2023-03-01T07:36:56.846Z,0.87
2023-03-01T07:37:56.876Z,0.91
2023-03-01T07:38:56.936Z,0.99
2023-03-01T07:39:56.944Z,1
2023-03-01T07:40:56.979Z,1.03
2023-03-01T07:41:57.023Z,1.05
2023-03-01T07:42:57.093Z,1.06
2023-03-01T07:43:57.088Z,1.16
2023-03-01T07:44:57.127Z,1.16
2023-03-01T07:45:57.183Z,1.18
2023-03-01T07:46:57.210Z,1.25
2023-03-01T07:47:57.232Z,1.27
2023-03-01T07:48:57.267Z,1.34
2023-03-01T07:49:57.298Z,1.39
2023-03-01T07:50:57.329Z,1.4
2023-03-01T07:51:57.363Z,1.47
2023-03-01T07:52:57.400Z,1.5
2023-03-01T07:53:57.436Z,1.56
2023-03-01T07:54:57.467Z,1.6
2023-03-01T07:55:57.497Z,1.7
2023-03-01T07:56:57.541Z,1.75
2023-03-01T07:57:57.565Z,1.72
2023-03-01T07:58:57.607Z,1.75
2023-03-01T07:59:57.637Z,1.78
2023-03-01T08:00:57.678Z,1.77
2023-03-01T08:01:57.747Z,1.79
2023-03-01T08:02:57.744Z,1.84
2023-03-01T08:03:57.771Z,1.85
2023-03-01T08:04:57.809Z,1.85
2023-03-01T08:05:57.844Z,1.84
2023-03-01T08:06:57.878Z,1.87
2023-03-01T08:07:57.904Z,1.87
2023-03-01T08:08:57.936Z,1.86
2023-03-01T08:09:57.971Z,1.89
2023-03-01T08:10:58.043Z,1.91
2023-03-01T08:11:58.133Z,1.95
2023-03-01T08:12:58.070Z,1.96
2023-03-01T08:13:58.104Z,2.02
2023-03-01T08:14:58.142Z,2.07
2023-03-01T08:15:58.195Z,2.07
2023-03-01T08:16:58.246Z,2.12
2023-03-01T08:17:58.247Z,2.17
2023-03-01T08:18:58.283Z,2.24
2023-03-01T08:19:58.315Z,2.27
2023-03-01T08:20:58.381Z,2.34
2023-03-01T08:21:58.386Z,2.43
2023-03-01T08:22:58.451Z,2.49
2023-03-01T08:23:58.448Z,2.53
2023-03-01T08:24:58.491Z,2.57
2023-03-01T08:25:58.521Z,2.66
2023-03-01T08:26:58.568Z,2.68
2023-03-01T08:27:58.592Z,2.73
2023-03-01T08:28:58.636Z,2.72
2023-03-01T08:29:58.675Z,2.68
2023-03-01T08:30:58.731Z,2.66
2023-03-01T08:31:58.845Z,2.63
2023-03-01T08:32:58.879Z,2.65
2023-03-01T08:33:58.815Z,2.64
2023-03-01T08:34:58.841Z,2.65
2023-03-01T08:35:58.891Z,2.63
2023-03-01T08:36:58.907Z,2.68
2023-03-01T08:37:58.947Z,2.7
2023-03-01T08:38:59.004Z,2.7
2023-03-01T08:39:59.048Z,2.69
2023-03-01T08:40:59.059Z,2.73
2023-03-01T08:41:59.089Z,2.77
2023-03-01T08:42:59.122Z,2.76
2023-03-01T08:43:59.155Z,2.77
2023-03-01T08:44:59.191Z,2.81
2023-03-01T08:45:59.273Z,2.82
2023-03-01T08:46:59.244Z,2.82
2023-03-01T08:47:59.264Z,2.83
2023-03-01T08:48:59.314Z,2.82
2023-03-01T08:49:59.340Z,2.83
2023-03-01T08:50:59.379Z,2.84
2023-03-01T08:51:59.401Z,2.85
2023-03-01T08:52:59.439Z,2.92
2023-03-01T08:53:59.481Z,2.98
2023-03-01T08:54:59.493Z,2.96
2023-03-01T08:55:59.534Z,2.99
2023-03-01T08:56:59.563Z,3.06
2023-03-01T08:57:59.602Z,3.05
2023-03-01T08:58:59.637Z,3.1
2023-03-01T08:59:59.673Z,3.11
2023-03-01T09:00:59.709Z,3.18
2023-03-01T09:01:59.773Z,3.2
2023-03-01T09:02:59.780Z,3.15
2023-03-01T09:03:59.867Z,3.18
2023-03-01T09:04:59.836Z,3.23
2023-03-01T09:05:59.877Z,3.26
2023-03-01T09:06:59.911Z,3.25
2023-03-01T09:07:59.985Z,3.3
2023-03-01T09:08:59.978Z,3.35
2023-03-01T09:10:00.003Z,3.31
2023-03-01T09:11:00.041Z,3.31
2023-03-01T09:12:00.102Z,3.31
2023-03-01T09:13:00.135Z,3.34
2023-03-01T09:14:00.140Z,3.33
2023-03-01T09:15:00.162Z,3.36
2023-03-01T09:16:00.197Z,3.42
2023-03-01T09:17:00.268Z,3.48
2023-03-01T09:18:00.259Z,3.51
2023-03-01T09:19:00.298Z,3.51
2023-03-01T09:20:00.330Z,3.58
2023-03-01T09:21:00.359Z,3.64
2023-03-01T09:22:00.431Z,3.7
2023-03-01T09:23:00.440Z,3.77
2023-03-01T09:24:00.484Z,3.77
2023-03-01T09:25:00.539Z,3.79
2023-03-01T09:26:00.545Z,3.78
2023-03-01T09:27:00.577Z,3.82
2023-03-01T09:28:00.606Z,3.88
2023-03-01T09:29:00.649Z,3.9
2023-03-01T09:30:00.684Z,3.94
2023-03-01T09:31:00.800Z,3.83
2023-03-01T09:32:00.861Z,3.82
2023-03-01T09:33:00.779Z,3.85
2023-03-01T09:34:00.847Z,3.89
2023-03-01T09:35:00.851Z,3.87
2023-03-01T09:36:00.988Z,3.83
2023-03-01T09:37:00.912Z,3.87
2023-03-01T09:38:00.954Z,3.83
2023-03-01T09:39:00.987Z,3.78
2023-03-01T09:40:01.014Z,3.72
2023-03-01T09:41:01.055Z,3.65
2023-03-01T09:42:01.088Z,3.62
2023-03-01T09:43:01.126Z,3.62
2023-03-01T09:44:01.165Z,3.72
2023-03-01T09:45:01.213Z,3.77
2023-03-01T09:46:01.259Z,3.78
2023-03-01T09:47:01.282Z,3.86
2023-03-01T09:48:01.303Z,3.91
2023-03-01T09:49:01.335Z,3.9
2023-03-01T09:50:01.372Z,3.9
2023-03-01T09:51:01.412Z,3.86
2023-03-01T09:52:01.461Z,3.92
2023-03-01T09:53:01.486Z,3.97
2023-03-01T09:54:01.514Z,4.01
2023-03-01T09:55:01.550Z,4.04
2023-03-01T09:56:01.586Z,4.02
2023-03-01T09:57:01.614Z,4.07
2023-03-01T09:58:01.644Z,4.16
2023-03-01T09:59:01.677Z,4.17
2023-03-01T10:00:01.723Z,4.2
2023-03-01T10:01:01.752Z,4.36
2023-03-01T10:02:01.802Z,4.36
2023-03-01T10:03:01.839Z,4.43
2023-03-01T10:04:01.930Z,4.49
2023-03-01T10:05:01.928Z,4.5
2023-03-01T10:06:01.916Z,4.58
2023-03-01T10:07:01.946Z,4.61
2023-03-01T10:08:01.975Z,4.66
2023-03-01T10:09:02.003Z,4.77
2023-03-01T10:10:02.033Z,4.83
2023-03-01T10:11:02.075Z,4.89
2023-03-01T10:12:02.096Z,4.88
2023-03-01T10:13:02.125Z,4.9
2023-03-01T10:14:02.164Z,4.93
2023-03-01T10:15:02.198Z,4.94
2023-03-01T10:16:02.321Z,4.96
2023-03-01T10:17:02.296Z,4.94
2023-03-01T10:18:02.302Z,5.02
2023-03-01T10:19:02.340Z,5.06
2023-03-01T10:20:02.375Z,5.07
2023-03-01T10:21:02.434Z,5.17
2023-03-01T10:22:02.440Z,5.3
2023-03-01T10:23:02.506Z,5.35
2023-03-01T10:24:02.554Z,5.45
2023-03-01T10:25:02.584Z,5.57
2023-03-01T10:26:02.568Z,5.63
2023-03-01T10:27:02.607Z,5.62
2023-03-01T10:28:02.649Z,5.7
2023-03-01T10:29:02.691Z,5.77
2023-03-01T10:30:02.718Z,5.77
2023-03-01T10:31:03.445Z,5.84
2023-03-01T10:32:02.815Z,6.05
2023-03-01T10:33:03.978Z,6.13
2023-03-01T10:34:02.843Z,6.17
2023-03-01T10:35:02.888Z,6.16
2023-03-01T10:36:02.978Z,6.23
2023-03-01T10:37:02.957Z,6.37
2023-03-01T10:38:02.992Z,6.34
2023-03-01T10:39:03.028Z,6.38
2023-03-01T10:40:03.057Z,6.45
2023-03-01T10:41:03.131Z,6.49
2023-03-01T10:42:03.133Z,6.5
2023-03-01T10:43:03.173Z,6.52
2023-03-01T10:44:03.221Z,6.46
2023-03-01T10:45:03.248Z,6.52
2023-03-01T10:46:03.433Z,6.48
2023-03-01T10:47:03.301Z,6.59
2023-03-01T10:48:03.358Z,6.71
2023-03-01T10:49:03.358Z,6.86
2023-03-01T10:50:03.416Z,6.84
2023-03-01T10:51:03.442Z,6.71
2023-03-01T10:52:03.484Z,6.78
2023-03-01T10:53:03.504Z,6.75
2023-03-01T10:54:03.544Z,6.85
2023-03-01T10:55:03.582Z,6.9
2023-03-01T10:56:03.630Z,7.02
2023-03-01T10:57:03.649Z,7.03
2023-03-01T10:58:03.686Z,7.03
2023-03-01T10:59:03.720Z,7.09
2023-03-01T11:00:03.772Z,7.11
2023-03-01T11:01:03.807Z,7.2
2023-03-01T11:02:12.053Z,7.26
2023-03-01T11:03:03.863Z,7.29
2023-03-01T11:04:03.913Z,7.3
2023-03-01T11:05:04.069Z,7.41
2023-03-01T11:06:03.953Z,7.43
2023-03-01T11:07:03.981Z,7.36
2023-03-01T11:08:04.023Z,7.39
2023-03-01T11:09:04.054Z,7.28
2023-03-01T11:10:04.138Z,7.31
2023-03-01T11:11:04.149Z,7.37
2023-03-01T11:12:04.161Z,7.39
2023-03-01T11:13:04.188Z,7.32
2023-03-01T11:14:10.484Z,7.19
2023-03-01T11:15:04.255Z,7.3
2023-03-01T11:16:04.362Z,7.28
2023-03-01T11:17:04.335Z,7.3
2023-03-01T11:18:13.793Z,7.25
2023-03-01T11:19:04.389Z,7.24
2023-03-01T11:20:04.423Z,7.22
2023-03-01T11:21:04.475Z,7.2
2023-03-01T11:22:04.577Z,7.17
2023-03-01T11:23:04.529Z,7.19
2023-03-01T11:24:04.573Z,7.21
2023-03-01T11:25:10.351Z,7.26
2023-03-01T11:26:04.644Z,7.26
2023-03-01T11:27:04.688Z,7.26
2023-03-01T11:28:04.735Z,7.27
2023-03-01T11:29:04.761Z,7.21
2023-03-01T11:30:04.788Z,7.21
2023-03-01T11:31:09.123Z,7.24
2023-03-01T11:32:04.997Z,7.21
2023-03-01T11:33:04.937Z,7.16
2023-03-01T11:34:05.001Z,6.98
2023-03-01T11:35:04.954Z,6.9
2023-03-01T11:36:05.069Z,6.85
2023-03-01T11:37:05.016Z,6.85
2023-03-01T11:38:05.056Z,6.87
2023-03-01T11:39:05.083Z,6.89
2023-03-01T11:40:05.116Z,6.9
2023-03-01T11:41:05.158Z,7.01
2023-03-01T11:42:18.113Z,7.04
2023-03-01T11:43:05.294Z,7
2023-03-01T11:44:05.257Z,7
2023-03-01T11:45:05.282Z,6.91
2023-03-01T11:46:05.313Z,6.94
2023-03-01T11:47:05.507Z,6.9
2023-03-01T11:48:05.379Z,6.89
2023-03-01T11:49:05.413Z,6.95
2023-03-01T11:50:05.436Z,6.95
2023-03-01T11:51:05.475Z,6.92
2023-03-01T11:52:05.508Z,6.91
2023-03-01T11:53:05.565Z,6.93
2023-03-01T11:54:05.574Z,6.94
2023-03-01T11:55:05.604Z,6.96
2023-03-01T11:56:05.655Z,6.97
2023-03-01T11:57:05.677Z,6.99
2023-03-01T11:58:05.697Z,7.05
2023-03-01T11:59:05.734Z,7.06
2023-03-01T12:00:05.776Z,7.06
2023-03-01T12:01:05.826Z,7.14
2023-03-01T12:02:05.896Z,7.16
2023-03-01T12:03:05.883Z,7.1
2023-03-01T12:04:05.937Z,7
2023-03-01T12:05:05.989Z,7.04
2023-03-01T12:06:05.981Z,7.07
2023-03-01T12:07:06.034Z,7
2023-03-01T12:08:06.061Z,6.9
2023-03-01T12:09:06.095Z,6.89
2023-03-01T12:10:06.158Z,6.98
2023-03-01T12:11:06.212Z,7.04
2023-03-01T12:12:06.192Z,7.07
2023-03-01T12:13:06.234Z,7.02
2023-03-01T12:14:06.292Z,6.97
2023-03-01T12:15:06.317Z,7
2023-03-01T12:16:06.432Z,6.79
2023-03-01T12:17:06.408Z,6.75
2023-03-01T12:18:06.412Z,6.64
2023-03-01T12:19:06.445Z,6.69
2023-03-01T12:20:06.632Z,6.72
2023-03-01T12:21:06.506Z,6.73
2023-03-01T12:22:06.542Z,6.68
2023-03-01T12:23:19.566Z,6.81
2023-03-01T12:24:06.611Z,6.79
2023-03-01T12:25:06.648Z,6.7
2023-03-01T12:26:06.683Z,6.69
2023-03-01T12:27:06.715Z,6.63
2023-03-01T12:28:06.756Z,6.61
2023-03-01T12:29:06.784Z,6.54
2023-03-01T12:30:06.822Z,6.58
2023-03-01T12:31:06.848Z,6.61
2023-03-01T12:32:07.116Z,6.57
2023-03-01T12:33:06.922Z,6.52
2023-03-01T12:34:06.957Z,6.52
2023-03-01T12:35:07.026Z,6.59
2023-03-01T12:36:07.095Z,6.58
2023-03-01T12:37:07.057Z,6.46
2023-03-01T12:38:07.105Z,6.47
2023-03-01T12:39:07.140Z,6.55
2023-03-01T12:40:07.176Z,6.48
2023-03-01T12:41:07.255Z,6.47
2023-03-01T12:42:07.241Z,6.46
2023-03-01T12:43:07.280Z,6.35
2023-03-01T12:44:08.328Z,6.34
2023-03-01T12:45:07.359Z,6.42
2023-03-01T12:46:07.519Z,6.44
2023-03-01T12:47:07.412Z,6.46
2023-03-01T12:48:07.461Z,6.47
2023-03-01T12:49:07.484Z,6.43
2023-03-01T12:50:07.548Z,6.35
2023-03-01T12:51:07.563Z,6.35
2023-03-01T12:52:07.593Z,6.33
2023-03-01T12:53:07.614Z,6.31
2023-03-01T12:54:07.653Z,6.24
2023-03-01T12:55:07.723Z,6.36
2023-03-01T12:56:07.716Z,6.37
2023-03-01T12:57:07.734Z,6.37
2023-03-01T12:58:07.770Z,6.43
2023-03-01T12:59:07.812Z,6.39
2023-03-01T13:00:07.839Z,6.34
2023-03-01T13:01:07.967Z,6.35
2023-03-01T13:02:07.911Z,6.39
2023-03-01T13:03:07.939Z,6.33
2023-03-01T13:04:08.072Z,6.34
2023-03-01T13:05:08.007Z,6.28
2023-03-01T13:06:08.047Z,6.29
2023-03-01T13:07:08.079Z,6.25
2023-03-01T13:08:08.115Z,6.22
2023-03-01T13:09:08.159Z,6.23
2023-03-01T13:10:08.195Z,6.26